Time;durP1;ratioP1;P1;durP2;ratioP2;P2;SDS_P1;SDS_P2;PMS_P1;PMS_P2;Temp;Humidity;BMP_temperature;BMP_pressure;BME280_temperature;BME280_humidity;BME280_pressure;Samples;Min_cycle;Max_cycle;Signal;HPM_P1;HPM_P2
2023/01/28 00:00:42;;;;;;;;;3.00;1.00;;;;;20.10;56.92;101856.61;111379;1270;19657;-70
2023/01/28 00:03:25;;;;;;;;;1.00;1.00;;;;;20.10;56.80;101855.35;111422;1270;18544;-70
2023/01/28 00:05:53;;;;;;;;;1.00;1.00;;;;;20.10;56.66;101846.86;111416;1269;19570;-70
2023/01/28 00:08:20;;;;;;;;;1.00;1.00;;;;;20.11;56.84;101850.55;111429;1270;18461;-70
2023/01/28 00:10:47;;;;;;;;;3.00;3.00;;;;;20.10;56.73;101854.27;111445;1270;18715;-70
2023/01/28 00:13:15;;;;;;;;;2.00;2.00;;;;;20.10;56.75;101852.51;111405;1254;19396;-70
2023/01/28 00:15:43;;;;;;;;;3.00;3.00;;;;;20.10;56.96;101851.23;111400;1270;18566;-70
2023/01/28 00:18:11;;;;;;;;;1.00;1.00;;;;;20.10;56.68;101843.98;111393;1269;21177;-70
2023/01/28 00:20:38;;;;;;;;;1.00;1.00;;;;;20.09;56.66;101839.50;111424;1270;19414;-70
2023/01/28 00:23:06;;;;;;;;;3.00;2.00;;;;;20.08;56.89;101831.02;111422;1263;19514;-70
2023/01/28 00:25:33;;;;;;;;;1.00;1.00;;;;;20.08;56.62;101829.40;111409;1270;18849;-70
2023/01/28 00:28:01;;;;;;;;;1.00;1.00;;;;;20.09;56.67;101823.02;111407;1270;20674;-70
2023/01/28 00:30:28;;;;;;;;;1.00;1.00;;;;;20.08;56.35;101824.02;111416;1270;18344;-70
2023/01/28 00:32:56;;;;;;;;;3.00;3.00;;;;;20.08;56.39;101819.28;111415;1256;20102;-70
2023/01/28 00:35:23;;;;;;;;;1.00;1.00;;;;;20.07;56.47;101817.38;111376;1270;20686;-70
2023/01/28 00:37:50;;;;;;;;;1.00;1.00;;;;;20.09;56.37;101820.69;111403;1270;18749;-70
2023/01/28 00:40:18;;;;;;;;;1.00;1.00;;;;;20.09;56.50;101821.73;111395;1270;19983;-70
2023/01/28 00:42:45;;;;;;;;;1.00;1.00;;;;;20.08;56.32;101823.06;111383;1270;20732;-70
2023/01/28 00:45:13;;;;;;;;;1.00;1.00;;;;;20.08;56.38;101822.73;111420;1254;19625;-70
2023/01/28 00:47:40;;;;;;;;;1.00;1.00;;;;;20.08;56.36;101820.17;111420;1268;19003;-70
2023/01/28 00:50:08;;;;;;;;;1.00;1.00;;;;;20.08;56.47;101821.31;111372;1270;20920;-70
2023/01/28 00:52:35;;;;;;;;;1.00;1.00;;;;;20.08;56.15;101817.52;111437;1270;18173;-70
2023/01/28 00:55:03;;;;;;;;;1.00;1.00;;;;;20.08;56.32;101816.05;111404;1270;19937;-70
2023/01/28 00:57:30;;;;;;;;;1.00;1.00;;;;;20.07;56.32;101813.52;111376;1270;21078;-70
2023/01/28 00:59:58;;;;;;;;;1.00;1.00;;;;;20.06;56.34;101815.71;111391;1270;18417;-70
2023/01/28 01:02:26;;;;;;;;;1.00;1.00;;;;;20.06;56.25;101822.52;111417;1270;19096;-71
2023/01/28 01:04:59;;;;;;;;;1.00;1.00;;;;;20.07;56.28;101822.80;111408;1254;21143;-70
2023/01/28 01:07:33;;;;;;;;;1.00;1.00;;;;;20.08;56.04;101825.67;111404;1270;19598;-70
2023/01/28 01:10:01;;;;;;;;;1.00;1.00;;;;;20.08;56.15;101833.46;111441;1263;20334;-70
2023/01/28 01:12:28;;;;;;;;;1.00;1.00;;;;;20.07;56.28;101829.54;111414;1270;21192;-70
2023/01/28 01:14:56;;;;;;;;;1.00;1.00;;;;;20.07;56.40;101832.46;111404;1270;18575;-70
2023/01/28 01:17:23;;;;;;;;;1.00;1.00;;;;;20.06;56.20;101830.58;111414;1270;18545;-70
2023/01/28 01:19:51;;;;;;;;;3.00;3.00;;;;;20.07;56.15;101829.58;111411;1254;22136;-70
2023/01/28 01:22:18;;;;;;;;;1.00;1.00;;;;;20.07;56.04;101829.34;111393;1270;19852;-70
2023/01/28 01:24:46;;;;;;;;;1.67;1.67;;;;;20.08;56.09;101831.09;111384;1270;21423;-70
2023/01/28 01:27:13;;;;;;;;;1.00;1.00;;;;;20.08;55.98;101832.38;111399;1262;19457;-70
2023/01/28 01:29:41;;;;;;;;;3.00;3.00;;;;;20.06;56.25;101828.90;111414;1270;18236;-70
2023/01/28 01:32:08;;;;;;;;;1.00;1.00;;;;;20.06;56.16;101832.73;111392;1270;20388;-71
2023/01/28 01:34:36;;;;;;;;;1.00;1.00;;;;;20.05;55.90;101830.87;111418;1270;20950;-70
2023/01/28 01:37:07;;;;;;;;;1.00;1.00;;;;;20.04;56.18;101829.08;111425;1270;18723;-70
2023/01/28 01:39:34;;;;;;;;;1.00;1.00;;;;;20.06;55.90;101835.28;111411;1270;20049;-70
2023/01/28 01:42:02;;;;;;;;;1.00;1.00;;;;;20.06;56.03;101834.20;111367;1270;19513;-70
2023/01/28 01:44:29;;;;;;;;;1.00;1.00;;;;;20.04;56.01;101831.77;111384;1270;18573;-71
2023/01/28 01:46:57;;;;;;;;;1.00;1.00;;;;;20.06;56.01;101832.02;111378;1262;18645;-70
2023/01/28 01:49:24;;;;;;;;;1.00;1.00;;;;;20.05;55.80;101831.15;111404;1262;20770;-70
2023/01/28 01:51:51;;;;;;;;;1.00;1.00;;;;;20.04;55.90;101826.76;111434;1270;18196;-70
2023/01/28 01:54:19;;;;;;;;;;;;;;;20.03;55.96;101824.63;111389;1262;19951;-71
2023/01/28 01:56:46;;;;;;;;;1.00;1.00;;;;;20.05;56.00;101822.67;111409;1269;20763;-71
2023/01/28 01:59:14;;;;;;;;;1.00;1.00;;;;;20.06;56.02;101820.58;111382;1270;19214;-70
2023/01/28 02:01:41;;;;;;;;;1.00;1.00;;;;;20.06;55.92;101821.64;111461;1270;18891;-71
2023/01/28 02:04:09;;;;;;;;;1.00;1.00;;;;;20.04;55.93;101820.58;111448;1263;19437;-71
2023/01/28 02:06:36;;;;;;;;;1.00;1.00;;;;;20.03;56.06;101820.25;111386;1270;19920;-70
2023/01/28 02:09:04;;;;;;;;;1.00;1.00;;;;;20.02;55.76;101820.55;111389;1270;18812;-71
2023/01/28 02:11:31;;;;;;;;;1.00;1.00;;;;;20.03;55.78;101821.55;111438;1254;20928;-70
2023/01/28 02:13:59;;;;;;;;;1.00;1.00;;;;;20.04;55.80;101823.30;111375;1270;18746;-70
2023/01/28 02:16:26;;;;;;;;;1.00;1.00;;;;;20.04;55.84;101825.64;111428;1270;19922;-70
2023/01/28 02:18:54;;;;;;;;;3.00;3.00;;;;;20.03;55.76;101817.73;111431;1254;20842;-70
2023/01/28 02:21:21;;;;;;;;;1.00;1.00;;;;;20.02;55.59;101819.98;111397;1270;19650;-70
2023/01/28 02:23:49;;;;;;;;;1.00;1.00;;;;;20.03;55.72;101821.02;111416;1270;18593;-70
2023/01/28 02:26:16;;;;;;;;;1.00;1.00;;;;;20.02;55.63;101818.00;111400;1269;19411;-70
2023/01/28 02:28:43;;;;;;;;;1.00;1.00;;;;;20.02;55.62;101817.98;111425;1270;18568;-71
2023/01/28 02:31:11;;;;;;;;;1.00;1.00;;;;;20.02;55.71;101814.26;111442;1270;18536;-71
2023/01/28 02:33:38;;;;;;;;;1.00;1.00;;;;;20.02;55.62;101816.42;111419;1263;20946;-70
2023/01/28 02:36:06;;;;;;;;;1.00;1.00;;;;;20.02;55.83;101813.34;111379;1270;18850;-71
2023/01/28 02:38:33;;;;;;;;;1.00;1.00;;;;;20.03;55.65;101816.85;111408;1263;20246;-70
2023/01/28 02:41:05;;;;;;;;;1.00;1.00;;;;;20.03;55.63;101817.77;111397;1269;19824;-70
2023/01/28 02:43:32;;;;;;;;;1.00;1.00;;;;;20.01;55.40;101817.89;111400;1269;18651;-70
2023/01/28 02:48:45;;;;;;;;;1.00;1.00;;;;;20.02;55.71;101819.30;111406;1270;19480;-70
2023/01/28 02:51:13;;;;;;;;;1.00;1.00;;;;;20.02;55.57;101815.48;111412;1270;18630;-71
2023/01/28 02:53:42;;;;;;;;;2.33;2.33;;;;;20.01;55.65;101818.81;111371;1270;21158;-71
2023/01/28 02:56:10;;;;;;;;;1.00;1.00;;;;;20.01;55.66;101813.02;111374;1270;19682;-70
2023/01/28 02:58:37;;;;;;;;;3.00;1.00;;;;;20.01;55.32;101815.71;111404;1270;19539;-70
2023/01/28 03:01:05;;;;;;;;;1.00;1.00;;;;;20.03;55.50;101816.13;111389;1254;21374;-70
2023/01/28 03:03:32;;;;;;;;;1.00;1.00;;;;;20.01;55.53;101813.91;111386;1254;20674;-70
2023/01/28 03:06:06;;;;;;;;;1.00;1.00;;;;;20.02;55.43;101813.27;111371;1270;18579;-70
2023/01/28 03:38:48;;;;;;;;;1.00;1.00;;;;;19.99;55.25;101815.77;111434;1270;18217;-70
2023/01/28 03:41:16;;;;;;;;;1.00;1.00;;;;;19.98;55.27;101815.28;111404;1270;19913;-70
2023/01/28 03:43:44;;;;;;;;;1.00;1.00;;;;;19.99;55.30;101820.69;111397;1270;20953;-70
2023/01/28 03:46:11;;;;;;;;;1.00;1.00;;;;;19.98;55.19;101815.48;111439;1254;19962;-71
2023/01/28 03:48:39;;;;;;;;;1.00;1.00;;;;;19.99;55.31;101819.02;111411;1270;20103;-70
2023/01/28 03:51:06;;;;;;;;;1.00;1.00;;;;;19.98;55.43;101821.65;111411;1269;19401;-70
2023/01/28 03:53:34;;;;;;;;;1.00;1.00;;;;;19.98;55.28;101825.61;111404;1262;18461;-71
2023/01/28 03:56:01;;;;;;;;;3.00;1.00;;;;;19.99;55.25;101827.73;111380;1270;20295;-70
2023/01/28 03:58:44;;;;;;;;;1.00;1.00;;;;;19.99;55.19;101830.63;111403;1270;19353;-70
2023/01/28 04:01:12;;;;;;;;;1.00;1.00;;;;;19.98;55.17;101826.35;111406;1254;18442;-70
2023/01/28 04:03:39;;;;;;;;;1.00;1.00;;;;;19.98;55.23;101828.73;111392;1270;18805;-70
2023/01/28 04:06:07;;;;;;;;;2.00;1.00;;;;;19.99;55.24;101833.53;111413;1270;19365;-71
2023/01/28 04:08:34;;;;;;;;;1.00;1.00;;;;;19.98;55.39;101835.21;111411;1270;18756;-70
2023/01/28 04:11:14;;;;;;;;;1.00;1.00;;;;;19.98;55.24;101834.31;111414;1270;18827;-70
2023/01/28 04:13:41;;;;;;;;;1.00;1.00;;;;;19.98;55.15;101835.40;111377;1270;21170;-70
2023/01/28 04:16:09;;;;;;;;;1.00;1.00;;;;;19.98;55.40;101834.50;111383;1270;19155;-70
2023/01/28 04:18:36;;;;;;;;;1.00;1.00;;;;;19.98;55.17;101836.84;111394;1270;19986;-70
2023/01/28 04:21:04;;;;;;;;;1.00;1.00;;;;;19.99;55.04;101834.29;111397;1270;19383;-70
2023/01/28 04:23:31;;;;;;;;;1.00;1.00;;;;;19.98;55.05;101839.39;111416;1270;19562;-70
2023/01/28 04:25:59;;;;;;;;;1.00;1.00;;;;;19.98;55.22;101836.52;111355;1270;19929;-70
2023/01/28 04:28:26;;;;;;;;;1.00;1.00;;;;;19.98;55.16;101836.17;111405;1270;19738;-70
2023/01/28 04:30:54;;;;;;;;;1.00;1.00;;;;;19.98;54.99;101839.27;111387;1270;18255;-71
2023/01/28 04:33:21;;;;;;;;;1.00;1.00;;;;;19.97;55.10;101839.52;111439;1270;18836;-71
2023/01/28 04:35:48;;;;;;;;;1.00;1.00;;;;;19.97;55.16;101837.00;111439;1256;21958;-70
2023/01/28 04:38:16;;;;;;;;;1.00;1.00;;;;;19.97;55.11;101834.45;111398;1270;19581;-70
2023/01/28 04:40:43;;;;;;;;;1.00;1.00;;;;;19.99;55.05;101838.83;111441;1270;18672;-71
2023/01/28 04:43:11;;;;;;;;;4.00;3.00;;;;;19.96;55.12;101830.49;111404;1270;19844;-70
2023/01/28 04:45:38;;;;;;;;;1.00;1.00;;;;;19.98;54.88;101832.20;111396;1270;19766;-70
2023/01/28 04:48:06;;;;;;;;;3.00;1.00;;;;;19.96;55.06;101828.11;111419;1270;19322;-70
2023/01/28 04:50:33;;;;;;;;;1.00;1.00;;;;;19.95;54.93;101828.27;111427;1270;21816;-71
2023/01/28 04:53:01;;;;;;;;;1.00;1.00;;;;;19.96;55.25;101830.02;111352;1270;18311;-70
2023/01/28 04:55:28;;;;;;;;;1.00;1.00;;;;;19.96;54.96;101832.94;111439;1270;19991;-70
2023/01/28 04:57:56;;;;;;;;;1.00;1.00;;;;;19.95;55.15;101831.17;111398;1269;19390;-70
2023/01/28 05:00:23;;;;;;;;;1.00;1.00;;;;;19.95;55.08;101831.50;111403;1270;19766;-70
2023/01/28 05:02:51;;;;;;;;;1.00;1.00;;;;;19.97;54.95;101831.73;111389;1270;20060;-70
2023/01/28 05:05:18;;;;;;;;;1.00;1.00;;;;;19.95;55.04;101832.31;111403;1270;19604;-70
2023/01/28 05:07:46;;;;;;;;;1.00;1.00;;;;;19.95;55.16;101831.95;111412;1270;19503;-71
2023/01/28 05:10:13;;;;;;;;;1.00;1.00;;;;;19.94;54.99;101831.80;111429;1254;20056;-70
2023/01/28 05:12:40;;;;;;;;;1.00;1.00;;;;;19.95;54.87;101839.56;111409;1269;21019;-70
2023/01/28 05:15:08;;;;;;;;;1.00;1.00;;;;;19.95;54.75;101839.88;111380;1262;19817;-70
2023/01/28 05:17:35;;;;;;;;;1.00;1.00;;;;;19.95;54.84;101846.03;111376;1270;21376;-71
2023/01/28 05:20:03;;;;;;;;;1.00;1.00;;;;;19.94;54.84;101847.20;111423;1270;19369;-70
2023/01/28 05:22:31;;;;;;;;;1.00;1.00;;;;;19.95;54.66;101851.36;111403;1270;18383;-70
2023/01/28 05:24:58;;;;;;;;;1.00;1.00;;;;;19.95;54.81;101854.73;111378;1270;19945;-70
2023/01/28 05:27:26;;;;;;;;;1.00;1.00;;;;;19.94;54.83;101853.03;111399;1254;23120;-70
2023/01/28 05:29:53;;;;;;;;;1.00;1.00;;;;;19.95;54.72;101856.92;111396;1270;19896;-70
2023/01/28 05:32:21;;;;;;;;;1.00;1.00;;;;;19.94;54.77;101851.73;111362;1270;19966;-70
2023/01/28 05:34:48;;;;;;;;;1.00;1.00;;;;;19.95;54.69;101849.73;111413;1254;19538;-71
2023/01/28 05:37:16;;;;;;;;;1.00;1.00;;;;;19.95;54.61;101850.55;111371;1270;18761;-70
2023/01/28 05:39:43;;;;;;;;;1.00;1.00;;;;;19.94;54.77;101851.94;111394;1270;18948;-70
2023/01/28 05:42:11;;;;;;;;;1.00;1.00;;;;;19.94;54.75;101856.09;111381;1270;19368;-70
2023/01/28 05:44:38;;;;;;;;;1.00;1.00;;;;;19.94;54.62;101855.06;111387;1270;19624;-71
2023/01/28 05:47:06;;;;;;;;;1.00;1.00;;;;;19.93;54.74;101861.85;111408;1270;20151;-70
2023/01/28 05:49:33;;;;;;;;;1.00;1.00;;;;;19.92;54.55;101855.92;111389;1270;22058;-71
2023/01/28 05:52:01;;;;;;;;;1.00;1.00;;;;;19.92;54.80;101857.77;111427;1270;19806;-70
2023/01/28 05:54:28;;;;;;;;;1.00;1.00;;;;;19.93;54.84;101862.59;111386;1270;20290;-70
2023/01/28 05:56:56;;;;;;;;;1.00;1.00;;;;;19.93;54.70;101864.19;111391;1270;20848;-70
2023/01/28 05:59:23;;;;;;;;;1.00;1.00;;;;;19.92;54.63;101863.59;111391;1254;19802;-70
2023/01/28 06:01:51;;;;;;;;;1.00;1.00;;;;;19.93;54.76;101866.98;111429;1270;18818;-70
2023/01/28 06:04:19;;;;;;;;;1.00;1.00;;;;;19.93;54.69;101866.05;111403;1269;19635;-70
2023/01/28 06:06:46;;;;;;;;;1.00;1.00;;;;;19.92;54.70;101866.31;111411;1270;18859;-71
2023/01/28 06:09:13;;;;;;;;;1.00;1.00;;;;;19.92;54.74;101870.27;111386;1270;21174;-71
2023/01/28 06:11:41;;;;;;;;;1.00;1.00;;;;;19.92;54.65;101868.27;111436;1263;19800;-71
2023/01/28 06:14:08;;;;;;;;;1.00;1.00;;;;;19.93;54.74;101867.52;111433;1270;18221;-70
2023/01/28 06:16:36;;;;;;;;;1.00;1.00;;;;;19.93;54.62;101868.44;111381;1270;19912;-71
2023/01/28 06:19:03;;;;;;;;;1.00;1.00;;;;;19.92;54.70;101873.00;111415;1270;20695;-71
2023/01/28 06:21:31;;;;;;;;;1.00;1.00;;;;;19.93;54.80;101872.00;111429;1270;19506;-71
2023/01/28 06:23:58;;;;;;;;;1.00;1.00;;;;;19.92;54.74;101877.95;111429;1270;19022;-71
2023/01/28 06:26:26;;;;;;;;;1.00;1.00;;;;;19.92;54.68;101881.73;111434;1254;21224;-70
2023/01/28 06:28:53;;;;;;;;;1.00;1.00;;;;;19.92;54.74;101885.75;111356;1270;19591;-70
2023/01/28 06:31:20;;;;;;;;;1.00;1.00;;;;;19.92;54.57;101891.55;111389;1269;20152;-70
2023/01/28 06:33:48;;;;;;;;;1.00;1.00;;;;;19.92;54.67;101893.73;111391;1270;20842;-70
2023/01/28 06:36:15;;;;;;;;;1.00;1.00;;;;;19.92;54.41;101890.60;111402;1270;19808;-71
2023/01/28 06:38:43;;;;;;;;;1.00;1.00;;;;;19.92;54.57;101893.02;111391;1270;18635;-70
2023/01/28 06:41:10;;;;;;;;;1.00;1.00;;;;;19.92;54.61;101896.10;111387;1270;21063;-70
2023/01/28 06:43:38;;;;;;;;;1.00;1.00;;;;;19.91;54.37;101895.27;111395;1262;18402;-70
2023/01/28 06:46:05;;;;;;;;;1.00;1.00;;;;;19.91;54.37;101901.94;111380;1270;18840;-71
2023/01/28 06:48:33;;;;;;;;;1.00;1.00;;;;;19.90;54.60;101902.91;111439;1269;19677;-70
2023/01/28 06:51:00;;;;;;;;;1.00;1.00;;;;;19.90;54.75;101903.66;111437;1263;18739;-70
2023/01/28 06:53:28;;;;;;;;;1.00;1.00;;;;;19.91;54.61;101908.70;111427;1263;20188;-72
2023/01/28 06:55:55;;;;;;;;;1.00;1.00;;;;;19.91;54.56;101911.77;111379;1270;20873;-71
2023/01/28 06:58:23;;;;;;;;;1.00;1.00;;;;;19.92;54.75;101912.20;111424;1270;19838;-71
2023/01/28 07:00:50;;;;;;;;;1.00;1.00;;;;;19.92;54.57;101910.95;111406;1270;18586;-71
2023/01/28 07:03:18;;;;;;;;;1.00;1.00;;;;;19.90;54.67;101910.70;111422;1270;19471;-71
2023/01/28 07:05:45;;;;;;;;;1.00;1.00;;;;;19.89;54.78;101908.99;111414;1269;18546;-73
2023/01/28 07:08:13;;;;;;;;;1.00;1.00;;;;;19.90;54.55;101908.54;111380;1270;18843;-71
2023/01/28 07:10:40;;;;;;;;;1.00;1.00;;;;;19.93;54.60;101907.90;111391;1263;20905;-70
2023/01/28 07:13:08;;;;;;;;;1.00;1.00;;;;;19.97;54.36;101909.88;111406;1270;18209;-72
2023/01/28 07:15:35;;;;;;;;;1.00;1.00;;;;;20.01;54.60;101912.46;111421;1270;19181;-71
2023/01/28 07:18:03;;;;;;;;;3.00;3.00;;;;;20.02;54.69;101909.13;111393;1270;19776;-74
2023/01/28 07:20:30;;;;;;;;;1.00;1.00;;;;;20.02;55.08;101912.14;111367;1270;19796;-73
2023/01/28 07:22:57;;;;;;;;;1.00;1.00;;;;;20.03;54.95;101906.13;111397;1270;18791;-72
2023/01/28 07:25:25;;;;;;;;;1.00;1.00;;;;;20.06;55.02;101906.02;111404;1255;19560;-74
2023/01/28 07:27:53;;;;;;;;;1.00;1.00;;;;;20.03;55.09;101909.93;111419;1270;18202;-73
2023/01/28 07:30:20;;;;;;;;;1.00;1.00;;;;;20.02;55.14;101909.10;111415;1270;19993;-74
2023/01/28 07:32:48;;;;;;;;;1.00;1.00;;;;;20.00;55.02;101913.95;111421;1269;20727;-71
2023/01/28 07:35:15;;;;;;;;;1.00;1.00;;;;;20.00;55.15;101914.02;111386;1270;18912;-73
2023/01/28 07:37:43;;;;;;;;;1.00;1.00;;;;;19.98;55.24;101916.73;111368;1270;20428;-73
2023/01/28 07:40:10;;;;;;;;;1.00;1.00;;;;;19.97;55.18;101920.45;111381;1256;22085;-74
2023/01/28 07:42:38;;;;;;;;;3.00;1.00;;;;;20.01;54.93;101919.20;111379;1270;19568;-75
2023/01/28 07:45:06;;;;;;;;;3.00;3.00;;;;;20.02;55.08;101917.30;111312;1270;123937;-74
2023/01/28 07:47:33;;;;;;;;;1.00;1.00;;;;;20.03;55.07;101916.07;111386;1254;19428;-74
2023/01/28 07:50:01;;;;;;;;;1.00;1.00;;;;;20.06;55.08;101924.73;111388;1269;19820;-73
2023/01/28 07:52:28;;;;;;;;;1.00;1.00;;;;;20.09;55.66;101924.27;111386;1254;18644;-73
2023/01/28 07:54:56;;;;;;;;;1.00;1.00;;;;;20.10;55.63;101921.39;111354;1270;21837;-73
2023/01/28 07:57:23;;;;;;;;;1.00;1.00;;;;;20.10;55.73;101917.20;111415;1256;21118;-73
2023/01/28 07:59:51;;;;;;;;;1.00;1.00;;;;;20.10;55.79;101918.33;111390;1270;21064;-74
2023/01/28 08:02:18;;;;;;;;;1.00;1.00;;;;;20.11;55.94;101918.83;111408;1255;20766;-74
2023/01/28 08:04:46;;;;;;;;;3.00;3.00;;;;;20.12;56.06;101910.85;111374;1270;18268;-76
2023/01/28 08:07:13;;;;;;;;;1.00;1.00;;;;;20.10;56.03;101905.98;111413;1270;18655;-75
2023/01/28 08:09:41;;;;;;;;;1.00;1.00;;;;;20.07;55.91;101913.69;111383;1254;20772;-77
2023/01/28 08:12:08;;;;;;;;;1.00;1.00;;;;;20.05;55.85;101913.90;111419;1270;19780;-73
2023/01/28 08:14:36;;;;;;;;;1.00;1.00;;;;;20.03;56.14;101916.09;111438;1263;18654;-73
2023/01/28 08:17:03;;;;;;;;;1.00;1.00;;;;;20.02;56.28;101920.88;111381;1254;19708;-74
2023/01/28 08:19:31;;;;;;;;;1.00;1.00;;;;;20.00;55.95;101919.94;111379;1270;18662;-74
2023/01/28 08:21:58;;;;;;;;;3.00;1.00;;;;;19.99;56.19;101915.54;111411;1263;19064;-74
2023/01/28 08:24:26;;;;;;;;;1.00;1.00;;;;;20.00;56.13;101917.63;111380;1270;21125;-74
2023/01/28 08:26:53;;;;;;;;;1.00;1.00;;;;;19.99;56.24;101917.53;111435;1264;18760;-74
2023/01/28 08:29:21;;;;;;;;;2.00;1.00;;;;;19.99;56.23;101917.37;111399;1269;18792;-74
2023/01/28 08:31:48;;;;;;;;;1.00;1.00;;;;;19.99;56.05;101921.73;111179;1270;20949;-75
2023/01/28 08:34:16;;;;;;;;;3.00;3.00;;;;;20.02;55.91;101927.27;111416;1270;18361;-75
2023/01/28 08:36:43;;;;;;;;;3.00;3.00;;;;;20.04;55.88;101924.69;111393;1270;18866;-75
2023/01/28 08:39:11;;;;;;;;;1.00;1.00;;;;;20.07;56.09;101922.42;111396;1254;20811;-72
2023/01/28 08:41:38;;;;;;;;;3.00;3.00;;;;;20.09;56.21;101918.27;111164;1256;19521;-72
2023/01/28 08:44:05;;;;;;;;;60.00;49.50;;;;;20.10;56.18;101924.33;111401;1270;20116;-72
2023/01/28 08:46:33;;;;;;;;;144.00;106.00;;;;;20.14;56.09;101926.31;111351;1270;20925;-72
2023/01/28 08:49:00;;;;;;;;;143.00;103.00;;;;;20.15;56.03;101930.53;111308;1270;18629;-72
2023/01/28 08:51:28;;;;;;;;;177.00;128.00;;;;;20.14;56.26;101927.92;111324;1270;20282;-72
2023/01/28 08:53:55;;;;;;;;;118.00;93.00;;;;;20.13;56.12;101926.44;111352;1270;19584;-73
2023/01/28 08:56:23;;;;;;;;;120.00;87.50;;;;;20.12;56.16;101923.95;111344;1270;18898;-73
2023/01/28 08:58:50;;;;;;;;;110.00;77.00;;;;;20.13;56.14;101927.13;111356;1270;18942;-72
2023/01/28 09:01:18;;;;;;;;;98.00;69.50;;;;;20.15;56.02;101931.78;111378;1270;20834;-73
2023/01/28 09:03:45;;;;;;;;;92.00;67.50;;;;;20.16;55.99;101923.41;111337;1270;21581;-74
2023/01/28 09:06:13;;;;;;;;;77.00;58.00;;;;;20.15;56.19;101926.02;111386;1270;18738;-73
2023/01/28 09:08:40;;;;;;;;;73.33;57.33;;;;;20.15;56.10;101921.81;111337;1267;21304;-73
2023/01/28 09:11:08;;;;;;;;;60.33;46.00;;;;;20.15;56.16;101925.48;111350;1270;18632;-72
2023/01/28 09:13:35;;;;;;;;;63.00;48.00;;;;;20.17;56.17;101925.31;111359;1255;18778;-72
2023/01/28 09:16:02;;;;;;;;;51.50;36.50;;;;;20.17;56.30;101922.59;111351;1270;19360;-72
2023/01/28 09:18:30;;;;;;;;;41.00;36.50;;;;;20.15;56.15;101920.79;111359;1270;20062;-72
2023/01/28 09:20:57;;;;;;;;;39.50;30.00;;;;;20.11;56.20;101922.23;111099;1265;21241;-72
2023/01/28 09:23:25;;;;;;;;;36.00;31.00;;;;;20.08;56.21;101919.59;111338;1270;22035;-73
2023/01/28 09:25:52;;;;;;;;;32.50;26.00;;;;;20.09;56.36;101923.29;111309;1270;21107;-75
2023/01/28 09:28:20;;;;;;;;;26.00;21.50;;;;;20.11;56.07;101923.34;111362;1263;20007;-76
2023/01/28 09:30:47;;;;;;;;;29.00;22.00;;;;;20.11;56.03;101915.73;111363;1264;19459;-74
2023/01/28 09:33:15;;;;;;;;;24.00;21.00;;;;;20.10;55.51;101917.09;111346;1270;20125;-74
2023/01/28 09:35:42;;;;;;;;;21.00;21.00;;;;;20.06;55.81;101916.33;111349;1263;20108;-74
2023/01/28 09:38:10;;;;;;;;;18.00;15.00;;;;;20.05;56.01;101918.85;111347;1270;21038;-75
2023/01/28 09:40:37;;;;;;;;;17.00;14.00;;;;;20.03;56.08;101916.44;111350;1270;18945;-74
2023/01/28 09:43:05;;;;;;;;;18.00;15.00;;;;;20.02;55.84;101913.05;111360;1270;18748;-74
2023/01/28 09:45:32;;;;;;;;;15.00;14.00;;;;;20.00;55.95;101911.80;111333;1270;22006;-74
2023/01/28 09:47:59;;;;;;;;;10.00;10.00;;;;;20.00;55.83;101906.05;111315;1270;19578;-74
2023/01/28 09:50:27;;;;;;;;;15.00;13.00;;;;;20.00;55.55;101910.17;111332;1270;18712;-74
2023/01/28 09:52:54;;;;;;;;;7.00;7.00;;;;;20.00;55.71;101909.40;111363;1270;20750;-74
2023/01/28 09:55:22;;;;;;;;;9.00;9.00;;;;;20.00;55.75;101905.44;111371;1256;20016;-74
2023/01/28 09:57:49;;;;;;;;;9.00;9.00;;;;;19.99;55.59;101909.72;111319;1270;19897;-74
2023/01/28 10:00:17;;;;;;;;;9.00;6.00;;;;;19.99;55.74;101909.34;111330;1270;20736;-74
2023/01/28 10:02:44;;;;;;;;;9.00;9.00;;;;;20.00;55.45;101909.08;111326;1270;20696;-74
2023/01/28 10:05:12;;;;;;;;;7.00;6.00;;;;;19.98;55.41;101908.88;111325;1270;20145;-74
2023/01/28 10:07:39;;;;;;;;;8.50;7.00;;;;;19.98;55.47;101907.12;111352;1270;19693;-74
2023/01/28 10:10:07;;;;;;;;;7.00;6.00;;;;;19.98;55.33;101904.70;111315;1270;18765;-74
2023/01/28 10:12:34;;;;;;;;;6.00;6.00;;;;;19.99;55.53;101907.23;111354;1262;20132;-75
2023/01/28 10:15:01;;;;;;;;;6.00;6.00;;;;;19.98;55.46;101907.68;111314;1270;20712;-74
2023/01/28 10:17:29;;;;;;;;;6.00;4.00;;;;;19.97;55.58;101903.38;111325;1270;18531;-74
2023/01/28 10:19:57;;;;;;;;;6.00;4.67;;;;;19.98;55.30;101905.13;111324;1270;20271;-74
2023/01/28 10:22:25;;;;;;;;;6.67;6.33;;;;;19.98;55.33;101909.65;111339;1255;21224;-74
2023/01/28 10:24:52;;;;;;;;;9.00;6.50;;;;;19.97;55.45;101907.17;111319;1270;19624;-74
2023/01/28 10:27:20;;;;;;;;;4.00;4.00;;;;;19.98;55.36;101912.02;111343;1270;18804;-74
2023/01/28 10:29:48;;;;;;;;;6.00;6.00;;;;;19.98;55.28;101913.75;111359;1256;22392;-74
2023/01/28 10:32:16;;;;;;;;;7.00;7.00;;;;;19.98;55.31;101911.79;111360;1255;19726;-75
2023/01/28 10:34:43;;;;;;;;;4.00;4.00;;;;;19.99;55.26;101917.90;111367;1270;18635;-74
2023/01/28 10:37:11;;;;;;;;;7.00;3.00;;;;;19.98;55.29;101920.91;111310;1270;21082;-75
2023/01/28 10:39:38;;;;;;;;;4.00;4.00;;;;;19.98;55.40;101924.29;111342;1255;18315;-74
2023/01/28 10:42:06;;;;;;;;;4.00;4.00;;;;;19.98;55.21;101919.57;111352;1270;21084;-74
2023/01/28 10:44:33;;;;;;;;;6.00;4.00;;;;;19.98;55.35;101918.30;111330;1270;19289;-74
2023/01/28 10:47:00;;;;;;;;;6.00;4.00;;;;;19.98;55.35;101915.44;111326;1270;19678;-74
2023/01/28 10:49:28;;;;;;;;;6.00;4.00;;;;;19.98;55.00;101912.38;111336;1270;19981;-74
2023/01/28 10:51:55;;;;;;;;;4.00;4.00;;;;;19.96;55.00;101907.23;111367;1270;19536;-74
2023/01/28 10:54:23;;;;;;;;;5.00;4.00;;;;;19.97;54.82;101911.52;111331;1270;19551;-74
2023/01/28 10:56:50;;;;;;;;;4.00;4.00;;;;;19.97;55.12;101913.75;111331;1270;20002;-74
2023/01/28 10:59:18;;;;;;;;;4.00;3.00;;;;;19.96;54.93;101914.86;111370;1270;19371;-74
2023/01/28 11:01:45;;;;;;;;;6.00;4.00;;;;;19.97;54.84;101915.14;111339;1270;18254;-74
2023/01/28 11:04:13;;;;;;;;;3.00;3.00;;;;;19.97;54.97;101920.02;111348;1255;18650;-74
2023/01/28 11:06:40;;;;;;;;;6.00;4.00;;;;;19.97;55.03;101924.92;111344;1270;19706;-74
2023/01/28 11:09:08;;;;;;;;;3.00;3.00;;;;;19.97;54.95;101923.84;111351;1254;19691;-74
2023/01/28 11:11:35;;;;;;;;;4.00;4.00;;;;;19.97;54.84;101923.88;111365;1255;19798;-74
2023/01/28 11:14:03;;;;;;;;;6.33;4.67;;;;;19.95;54.77;101914.61;111377;1270;19603;-74
2023/01/28 11:16:30;;;;;;;;;4.00;3.50;;;;;19.96;54.98;101912.57;111355;1256;20924;-75
2023/01/28 11:18:57;;;;;;;;;4.00;3.00;;;;;19.95;54.78;101910.29;111332;1270;21591;-75
2023/01/28 11:21:25;;;;;;;;;4.00;3.00;;;;;19.98;54.66;101908.54;111347;1255;20743;-74
2023/01/28 11:23:52;;;;;;;;;4.00;3.00;;;;;19.95;54.83;101899.00;111315;1270;19590;-74
2023/01/28 11:26:20;;;;;;;;;4.00;4.00;;;;;19.96;54.73;101895.88;111324;1262;20009;-74
2023/01/28 11:28:47;;;;;;;;;4.00;4.00;;;;;19.99;54.64;101892.48;111360;1270;19756;-74
2023/01/28 11:31:15;;;;;;;;;3.50;3.50;;;;;19.97;54.36;101890.66;111363;1262;18268;-74
2023/01/28 11:33:42;;;;;;;;;3.00;3.00;;;;;19.96;54.52;101894.55;111304;1270;18639;-74
2023/01/28 11:36:10;;;;;;;;;3.50;3.50;;;;;19.95;54.53;101893.41;111363;1270;19612;-74
2023/01/28 11:38:37;;;;;;;;;1.00;1.00;;;;;19.94;54.46;101886.41;111349;1270;19483;-74
2023/01/28 11:41:05;;;;;;;;;2.00;2.00;;;;;19.95;54.68;101890.48;111325;1270;18627;-74
2023/01/28 11:43:32;;;;;;;;;3.00;3.00;;;;;19.95;54.66;101898.65;111338;1256;21053;-73
2023/01/28 11:46:00;;;;;;;;;4.00;4.00;;;;;19.94;54.45;101891.47;111316;1270;19525;-74
2023/01/28 11:48:27;;;;;;;;;4.00;4.00;;;;;20.01;54.60;101886.52;111329;1255;21356;-74